Tiempo atmosférico en la estación meteorológica de Cáseda, Navarra (440 m.)



Fecha
DESCASC
Temp. máxima en grados centígrados (hora)
DESCASC
Temp. mínima en grados centígrados (hora)
DESCASC
Temp. media en grados centígrados
DESCASC
Racha de viento máxima en m/sg (hora)
DESCASC
Velocidad máxima media en intervalos de 10 minutos(hora)
DESCASC
Precipitaciones diarias en mm
DESCASC
Precipitaciones de 00:00 a 06:00 en mm
DESCASC
Precipitaciones de 06:00 a 12:00 en mm
DESCASC
Precipitaciones de 12:00 a 18:00 en mm
DESCASC
Precipitaciones de 18:00 a 24:00 en mm
DESCASC
13-06-2019 27.9 (17:40) 7.5 (06:00) 17.7 12.5 (14:40) 7.22 (13:00) 0 0 0 0 0
12-06-2019 22.2 (19:40) 4.1 (06:10) 13.2 6.39 (14:20) 2.78 (16:10) 0 0 0 0 0
11-06-2019 16.7 (16:20) 8.7 (23:59) 12.7 11.67 (16:30) 6.39 (13:00) 1.6 1.6 0 0 0
10-06-2019 17.6 (15:40) 11.6 (06:50) 14.6 11.94 (14:00) 6.67 (17:00) 0 0 0 0 0
09-06-2019 27.9 (17:00) 13 (00:00) 20.4 10.83 (19:40) 5 (18:00) 0 0 0 0 0
08-06-2019 26.4 (18:00) 7.1 (00:00) 16.7 9.17 (19:00) 5.28 (16:10) 0 0 0 0 0
07-06-2019 21.1 (16:30) 11.6 (00:00) 16.4 19.17 (01:50) 11.39 (01:50) 1.4 1.2 0.2 0 0
06-06-2019 24.5 (17:30) 8.3 (00:00) 16.4 17.22 (23:40) 9.44 (23:40) 0 0 0 0 0
05-06-2019 16.7 (17:00) 10.4 (00:00) 13.6 9.17 (17:30) 5.83 (17:40) 16 6 10 0 0
04-06-2019 32 (15:30) 14.1 (00:00) 23.1 12.22 (14:20) 7.22 (14:40) 0.6 0 0 0 0.6
03-06-2019 32.3 (18:20) 15.6 (00:00) 23.9 7.5 (19:20) 5.28 (19:20) 0 0 0 0 0
02-06-2019 32.9 (16:20) 13 (00:00) 23 8.89 (13:20) 5.28 (13:50) 0 0 0 0 0
01-06-2019 31.7 (18:20) 12.9 (00:00) 22.3 8.89 (14:10) 5.56 (13:50) 0 0 0 0 0
31-05-2019 29.7 (19:10) 9.9 (00:00) 19.8 5 (13:40) 3.33 (14:20) 0 0 0 0 0
30-05-2019 28.3 (16:40) 7.8 (00:00) 18 8.89 (17:50) 4.72 (18:10) 0 0 0 0 0
29-05-2019 18.9 (15:40) 9.7 (00:00) 14.3 13.61 (14:20) 7.78 (16:10) 0 0 0 0 0
28-05-2019 16.7 (14:40) 10.5 (00:00) 13.6 13.06 (18:00) 7.5 (18:10) 0 0 0 0 0
27-05-2019 20 (13:50) 11.5 (00:00) 15.8 13.61 (12:20) 7.5 (21:20) 0 0 0 0 0
26-05-2019 18.2 (15:50) 11 (00:00) 14.6 11.67 (14:10) 6.67 (14:30) 0 0 0 0 0
25-05-2019 18.3 (16:20) 12.1 (00:00) 15.2 13.89 (20:10) 6.94 (13:50) 0 0 0 0 0
24-05-2019 16.9 (14:30) 11.6 (00:00) 14.3 12.5 (15:30) 6.39 (15:30) 12.8 7.8 5 0 0
23-05-2019 26 (16:40) 9.9 (00:00) 17.9 10.28 (18:10) 6.94 (19:10) 4.2 0 0 1.2 3
22-05-2019 25.1 (18:00) 6.2 (00:00) 15.7 5.83 (20:20) 3.06 (20:20) 0 0 0 0 0
21-05-2019 22 (15:20) 5.7 (07:10) 13.8 10 (19:40) 5.28 (19:30) 0 0 0 0 0
20-05-2019 18.6 (15:20) 7.3 (06:50) 13 8.89 (19:30) 5.28 (17:40) 0 0 0 0 0
19-05-2019 13.1 (15:40) 7.3 (00:00) 10.2 10.83 (19:10) 6.94 (14:40) 4.8 2.4 2.4 0 0
18-05-2019 14.7 (15:40) 6 (00:00) 10.3 10 (19:10) 6.11 (18:00) 1.2 0 0 0 1.2
17-05-2019 12.8 (00:00) 8.4 (00:00) 10.6 10 (13:00) 5.83 (13:10) -- 32.2 -- 0.2 0

Gráficas

Temp. máximas Temp. mínimas Temp. medias Precipitaciones Rachas de viento máximas Velocidades máximas media en intervalos de 10 minutos

Datos horarios

Fecha y hora oficial Temperatura (ºC) Velocidad del viento (km/h) Dirección del viento Racha (km/h) Dirección de racha Precipitación (mm) Presión (hPa) Tendencia (hPa) Humedad (%)
2019-06-15 23:00:00 15.5 10 Norte 21 Norte 0 -- -- 62
2019-06-15 22:00:00 16.5 7 Norte 18 Nordeste 0 -- -- 58
2019-06-15 21:00:00 19.2 10 Norte 27 Norte 0 -- -- 50
2019-06-15 20:00:00 20.6 16 Norte 36 Norte 0 -- -- 45
2019-06-15 19:00:00 21.4 18 Norte 35 Norte 0 -- -- 45
2019-06-15 18:00:00 22.1 18 Norte 31 Noroeste 0 -- -- 43
2019-06-15 17:00:00 22.6 17 Norte 32 Noroeste 0 -- -- 42
2019-06-15 16:00:00 22.9 14 Norte 30 Norte 0 -- -- 39
2019-06-15 15:00:00 22.7 15 Norte 27 Norte 0 -- -- 41
2019-06-15 14:00:00 22.8 12 Nordeste 23 Nordeste 0 -- -- 45
2019-06-15 13:00:00 22.1 12 Norte 23 Nordeste 0 -- -- 47
2019-06-15 12:00:00 21 8 Norte 15 Noroeste 0 -- -- 52
2019-06-15 11:00:00 19.2 5 Oeste 12 Este 0 -- -- 56
2019-06-15 10:00:00 17.4 4 Nordeste 10 Noroeste 0 -- -- 63
2019-06-15 09:00:00 15.6 6 Noroeste 17 Noroeste 0 -- -- 68
2019-06-15 08:00:00 13.6 9 Norte 15 Noroeste 0 -- -- 75
2019-06-15 07:00:00 12 2 Este 9 Oeste 0 -- -- 80
2019-06-15 06:00:00 12.6 6 Oeste 17 Oeste 0 -- -- 79
2019-06-15 05:00:00 12.8 4 Noroeste 23 Oeste 0 -- -- 78
2019-06-15 04:00:00 13.3 6 Noroeste 20 Noroeste 0 -- -- 77
2019-06-15 03:00:00 14.1 6 Noroeste 21 Noroeste 0 -- -- 76
2019-06-15 02:00:00 14.3 12 Oeste 19 Oeste 0 -- -- 78
2019-06-15 01:00:00 14 4 Nordeste 17 Nordeste 0 -- -- 79
2019-06-15 00:00:00 14.5 7 Este 15 Nordeste 0 -- -- 78
2019-06-14 23:00:00 15.4 6 Nordeste 14 Nordeste 0 -- -- 75
2019-06-14 22:00:00 17.1 9 Nordeste 17 Nordeste 0 -- -- 70
2019-06-14 21:00:00 20.6 9 Nordeste 19 Nordeste 0 -- -- 60
2019-06-14 20:00:00 24.4 11 Norte 23 Nordeste 0 -- -- 51
2019-06-14 19:00:00 26.9 8 Nordeste 14 Este 0 -- -- 45
2019-06-14 18:00:00 26.4 9 Nordeste 17 Este 0 -- -- 44
2019-06-14 17:00:00 26 10 Nordeste 21 Nordeste 0 -- -- 49
2019-06-14 16:00:00 25.2 12 Nordeste 21 Nordeste 0 -- -- 50
2019-06-14 15:00:00 23.8 12 Nordeste 19 Nordeste 0 -- -- 53
2019-06-14 14:00:00 21.1 9 Nordeste 15 Nordeste 0 -- -- 62
2019-06-14 13:00:00 19.5 7 Nordeste 14 Este 0 -- -- 68
2019-06-14 12:00:00 17.4 4 Sudeste 9 Sudeste 0 -- -- 67
2019-06-14 11:00:00 16.6 3 Norte 14 Este 0 -- -- 71
2019-06-14 10:00:00 15.7 8 Nordeste 19 Este 0 -- -- 73
2019-06-14 09:00:00 14.3 10 Este 19 Este 0 -- -- 77
2019-06-14 08:00:00 13.1 8 Este 17 Este 0 -- -- 81
2019-06-14 07:00:00 12.5 8 Este 16 Este 0 -- -- 84
2019-06-14 06:00:00 12.5 8 Sudeste 15 Este 0 -- -- 83
2019-06-14 05:00:00 13.2 7 Sudeste 16 Sudeste 0 -- -- 81
2019-06-14 04:00:00 13.5 8 Este 17 Este 0 -- -- 80
2019-06-14 03:00:00 14.4 9 Este 17 Sudeste 0 -- -- 76
2019-06-14 02:00:00 15.3 8 Sudeste 17 Sudeste 0 -- -- 71
2019-06-14 01:00:00 16.2 9 Sudeste 22 Noroeste 0 -- -- 69
2019-06-14 00:00:00 18.5 9 Oeste 24 Noroeste 0 -- -- 55
2019-06-13 23:00:00 20.3 5 Sur 27 Sudeste 0 -- -- 46
2019-06-13 22:00:00 22 6 Sur 39 Sudeste 0 -- -- 42
2019-06-13 21:00:00 24.2 17 Sur 34 Sudeste 0 -- -- 42
2019-06-13 20:00:00 25.1 22 Sudeste 39 Sudeste 0 -- -- 38
2019-06-13 19:00:00 26.8 21 Sudeste 44 Sudeste 0 -- -- 38
2019-06-13 18:00:00 27.3 23 Sudeste 40 Sur 0 -- -- 37
2019-06-13 17:00:00 27.1 18 Sudeste 43 Sur 0 -- -- 38
2019-06-13 16:00:00 26.5 20 Sudeste 44 Sudeste 0 -- -- 40
2019-06-13 15:00:00 26 23 Sudeste 45 Sur 0 -- -- 39
2019-06-13 14:00:00 24.5 22 Sudeste 40 Sudeste 0 -- -- 41
2019-06-13 13:00:00 23.9 26 Sur 45 Sudeste 0 -- -- 46
2019-06-13 12:00:00 22.3 22 Sur 42 Sur 0 -- -- 46
2019-06-13 11:00:00 19.6 7 Norte 16 Norte 0 -- -- 54
2019-06-13 10:00:00 15.3 5 Noroeste 9 Noroeste 0 -- -- 63
2019-06-13 09:00:00 12.5 0 Calma 5 Oeste 0 -- -- 77
2019-06-13 08:00:00 10.1 4 Sudoeste 9 Noroeste 0 -- -- 79
2019-06-13 07:00:00 8.2 5 Oeste 13 Oeste 0 -- -- 86
2019-06-13 06:00:00 7.5 4 Oeste 9 Oeste 0 -- -- 87
2019-06-13 05:00:00 8.1 3 Sudoeste 6 Sudoeste 0 -- -- 85
2019-06-13 04:00:00 8.4 3 Este 11 Sudoeste 0 -- -- 84
2019-06-13 03:00:00 9.3 4 Sudoeste 9 Sudoeste 0 -- -- 80
2019-06-13 02:00:00 10.8 0 Calma 9 Sudeste 0 -- -- 78
2019-06-13 01:00:00 12.2 3 Sudeste 14 Este 0 -- -- 72
2019-06-13 00:00:00 13.1 7 Sudeste 14 Este 0 -- -- 69
2019-06-12 23:00:00 14.2 5 Sudeste 12 Este 0 -- -- 62
2019-06-12 22:00:00 17.1 5 Nordeste 12 Noroeste 0 -- -- 52
2019-06-12 21:00:00 21.1 9 Nordeste 15 Nordeste 0 -- -- 39
2019-06-12 20:00:00 22 8 Nordeste 12 Nordeste 0 -- -- 35
2019-06-12 19:00:00 21.9 5 Nordeste 14 Nordeste 0 -- -- 33
2019-06-12 18:00:00 21.6 9 Este 19 Nordeste 0 -- -- 36
2019-06-12 17:00:00 20.5 5 Norte 20 Este 0 -- -- 36
2019-06-12 16:00:00 20.3 6 Este 18 Oeste 0 -- -- 36
2019-06-12 15:00:00 20 7 Noroeste 23 Oeste 0 -- -- 36
2019-06-12 14:00:00 19.5 6 Norte 15 Noroeste 0 -- -- 36
2019-06-12 13:00:00 17.6 6 Noroeste 15 Noroeste 0 -- -- 46
2019-06-12 12:00:00 16.4 6 Norte 16 Norte 0 -- -- 51
2019-06-12 11:00:00 14.5 4 Norte 10 Nordeste 0 -- -- 53
2019-06-12 10:00:00 11.5 3 Norte 9 Nordeste 0 -- -- 70
2019-06-12 09:00:00 8.9 3 Noroeste 6 Noroeste 0 -- -- 79
2019-06-12 08:00:00 6.8 2 Nordeste 5 Nordeste 0 -- -- 88
2019-06-12 07:00:00 4.3 2 Este 9 Sur 0 -- -- 94
2019-06-12 06:00:00 4.3 0 Calma 6 Sur 0 -- -- 91
2019-06-12 05:00:00 4.9 3 Sudeste 9 Este 0 -- -- 91
2019-06-12 04:00:00 5.3 4 Sur 8 Noroeste 0 -- -- 89
2019-06-12 03:00:00 6.2 0 Calma 13 Sudoeste 0 -- -- 87
2019-06-12 02:00:00 6.9 3 Sudeste 8 Norte 0 -- -- 86
2019-06-12 01:00:00 7.8 7 Sur 12 Sur 0 -- -- 82
2019-06-12 00:00:00 8.7 3 Sur 8 Sudeste 0 -- -- 78
2019-06-11 23:00:00 10.1 5 Noroeste 14 Nordeste 0 -- -- 73
2019-06-11 22:00:00 10.9 8 Nordeste 19 Nordeste 0 -- -- 70
2019-06-11 21:00:00 12.8 12 Norte 31 Noroeste 0 -- -- 64
2019-06-11 20:00:00 13.7 14 Norte 36 Noroeste 0 -- -- 59
2019-06-11 19:00:00 15.2 13 Norte 34 Noroeste 0 -- -- 55
2019-06-11 18:00:00 14.5 19 Norte 39 Norte 0 -- -- 57
2019-06-11 17:00:00 15.6 18 Norte 42 Noroeste 0 -- -- 52
2019-06-11 16:00:00 15.9 18 Norte 36 Noroeste 0 -- -- 52
2019-06-11 15:00:00 15.5 16 Norte 38 Norte 0 -- -- 52
2019-06-11 14:00:00 15.5 18 Norte 35 Nordeste 0 -- -- 53
2019-06-11 13:00:00 14.1 23 Noroeste 39 Noroeste 0 -- -- 57
2019-06-11 12:00:00 13.8 12 Noroeste 27 Noroeste 0 -- -- 59
2019-06-11 11:00:00 12.6 12 Norte 27 Noroeste 0 -- -- 66
2019-06-11 10:00:00 11.8 14 Norte 32 Noroeste 0 -- -- 70
2019-06-11 09:00:00 10.2 9 Nordeste 23 Norte 0 -- -- 82
2019-06-11 08:00:00 9.8 4 Noroeste 11 Oeste 0 -- -- 82
2019-06-11 07:00:00 9.1 4 Noroeste 11 Noroeste 0 -- -- 83
2019-06-11 06:00:00 9.1 6 Noroeste 17 Oeste 0.2 -- -- 84
2019-06-11 05:00:00 9.1 6 Oeste 15 Noroeste 0.4 -- -- 85
2019-06-11 04:00:00 9.7 8 Oeste 15 Noroeste 1 -- -- 82
2019-06-11 03:00:00 10.9 11 Noroeste 17 Noroeste 0 -- -- 70
2019-06-11 02:00:00 11.6 5 Este 15 Nordeste 0 -- -- 64
2019-06-11 01:00:00 11.9 6 Nordeste 21 Nordeste 0 -- -- 60
2019-06-11 00:00:00 12.1 12 Nordeste 26 Nordeste 0 -- -- 59
2019-06-10 23:00:00 12.5 14 Noroeste 23 Norte 0 -- -- 62
2019-06-10 22:00:00 13.2 9 Norte 30 Norte 0 -- -- 56
2019-06-10 21:00:00 13.9 13 Norte 31 Nordeste 0 -- -- 57
2019-06-10 20:00:00 14.4 18 Norte 37 Norte 0 -- -- 56
2019-06-10 19:00:00 15.5 17 Norte 39 Nordeste 0 -- -- 54
2019-06-10 18:00:00 17.1 22 Norte 40 Norte 0 -- -- 54
2019-06-10 17:00:00 17.2 24 Norte 40 Norte 0 -- -- 54
2019-06-10 16:00:00 17.3 15 Norte 35 Noroeste 0 -- -- 54
2019-06-10 15:00:00 16.4 18 Norte 40 Norte 0 -- -- 55
2019-06-10 14:00:00 17.2 23 Noroeste 43 Noroeste 0 -- -- 57
2019-06-10 13:00:00 16.8 21 Noroeste 36 Noroeste 0 -- -- 59
2019-06-10 12:00:00 16.1 21 Noroeste 36 Noroeste 0 -- -- 60
2019-06-10 11:00:00 15.7 18 Noroeste 36 Noroeste 0 -- -- 63
2019-06-10 10:00:00 15.3 15 Norte 36 Norte 0 -- -- 64
2019-06-10 09:00:00 14 14 Noroeste 30 Noroeste 0 -- -- 68
2019-06-10 08:00:00 12.9 7 Noroeste 17 Noroeste 0 -- -- 71
2019-06-10 07:00:00 11.7 10 Noroeste 27 Noroeste 0 -- -- 76
2019-06-10 06:00:00 12 8 Norte 23 Nordeste 0 -- -- 75
2019-06-10 05:00:00 12.2 12 Norte 32 Norte 0 -- -- 76
2019-06-10 04:00:00 12.4 13 Norte 39 Nordeste 0 -- -- 75
2019-06-10 03:00:00 12.7 16 Norte 30 Norte 0 -- -- 75
2019-06-10 02:00:00 13.3 15 Norte 30 Nordeste 0 -- -- 75
2019-06-10 01:00:00 13.7 13 Norte 31 Norte 0 -- -- 75
2019-06-10 00:00:00 14 13 Norte 28 Norte 0 -- -- 75
2019-06-09 23:00:00 14.5 14 Norte 36 Norte 0 -- -- 74
2019-06-09 22:00:00 14.5 9 Norte 38 Noroeste 0 -- -- 76
2019-06-09 21:00:00 15.9 8 Norte 33 Nordeste 0 -- -- 71
2019-06-09 20:00:00 17.6 13 Norte 39 Norte 0 -- -- 67
2019-06-09 19:00:00 21.6 14 Norte 33 Norte 0 -- -- 57
2019-06-09 18:00:00 23.9 18 Norte 37 Norte 0 -- -- 51
2019-06-09 17:00:00 27.9 12 Noroeste 22 Noroeste 0 -- -- 32
2019-06-09 16:00:00 27.5 6 Noroeste 17 Sudoeste 0 -- -- 32
2019-06-09 15:00:00 26.7 7 Sudoeste 21 Oeste 0 -- -- 34
2019-06-09 14:00:00 25.5 6 Nordeste 14 Nordeste 0 -- -- 39
2019-06-09 13:00:00 24.3 7 Nordeste 13 Nordeste 0 -- -- 43
2019-06-09 12:00:00 22.4 5 Norte 12 Norte 0 -- -- 47
2019-06-09 11:00:00 19.8 7 Noroeste 12 Noroeste 0 -- -- 53
2019-06-09 10:00:00 17.9 2 Este 6 Nordeste 0 -- -- 62
2019-06-09 09:00:00 16.7 3 Nordeste 6 Nordeste 0 -- -- 63
2019-06-09 08:00:00 13.8 3 Nordeste 5 Nordeste 0 -- -- 78
2019-06-09 07:00:00 13.3 3 Noroeste 6 Sudeste 0 -- -- 73
2019-06-09 06:00:00 13.6 4 Sur 9 Sudeste 0 -- -- 73
2019-06-09 05:00:00 13.7 3 Sudeste 7 Sudoeste 0 -- -- 71
2019-06-09 04:00:00 14.3 4 Nordeste 11 Sur 0 -- -- 69
2019-06-09 03:00:00 15.4 2 Noroeste 8 Oeste 0 -- -- 61
2019-06-09 02:00:00 16.3 4 Noroeste 21 Sudeste 0 -- -- 56
2019-06-09 01:00:00 17.7 10 Sur 16 Sudeste 0 -- -- 46
2019-06-09 00:00:00 18.6 3 Sur 7 Sudeste 0 -- -- 47
2019-06-08 23:00:00 20 6 Sudeste 13 Sudeste 0 -- -- 47
2019-06-08 22:00:00 21.1 5 Sudeste 12 Sudeste 0 -- -- 47
2019-06-08 21:00:00 22.5 4 Este 17 Sudeste 0 -- -- 41
2019-06-08 20:00:00 23.7 10 Sudeste 30 Sur 0 -- -- 38
2019-06-08 19:00:00 25.3 19 Sudeste 33 Sudeste 0 -- -- 37
2019-06-08 18:00:00 26.4 16 Sur 28 Sur 0 -- -- 35
2019-06-08 17:00:00 25.8 15 Sur 30 Sur 0 -- -- 34
2019-06-08 16:00:00 25.9 14 Sur 29 Sur 0 -- -- 33
2019-06-08 15:00:00 24.4 15 Sur 27 Sur 0 -- -- 33
2019-06-08 14:00:00 22.9 5 Norte 15 Nordeste 0 -- -- 43
2019-06-08 13:00:00 21.3 8 Nordeste 16 Este 0 -- -- 48
2019-06-08 12:00:00 18.7 6 Norte 11 Nordeste 0 -- -- 56
2019-06-08 11:00:00 16.2 4 Nordeste 12 Este 0 -- -- 55
2019-06-08 10:00:00 14.3 8 Este 14 Nordeste 0 -- -- 61
2019-06-08 09:00:00 11.7 7 Este 13 Este 0 -- -- 73
2019-06-08 08:00:00 10 6 Este 11 Este 0 -- -- 78
2019-06-08 07:00:00 7.2 3 Sudeste 8 Sudeste 0 -- -- 84
2019-06-08 06:00:00 7.7 4 Sudeste 13 Este 0 -- -- 79
2019-06-08 05:00:00 8.6 8 Este 17 Este 0 -- -- 75
2019-06-08 04:00:00 8.7 8 Sudeste 18 Sudeste 0 -- -- 78
2019-06-08 03:00:00 9.7 11 Este 23 Sudeste 0 -- -- 71
2019-06-08 02:00:00 9.5 4 Sudeste 14 Sudeste 0 -- -- 76
2019-06-08 01:00:00 10.2 5 Sur 7 Sudeste 0 -- -- 73
2019-06-08 00:00:00 11.6 6 Norte 16 Norte 0 -- -- 67
2019-06-07 23:00:00 12.4 7 Norte 15 Noroeste 0 -- -- 64
2019-06-07 22:00:00 13.8 8 Norte 19 Nordeste 0 -- -- 61
2019-06-07 21:00:00 16.7 5 Noroeste 28 Norte 0 -- -- 53
2019-06-07 20:00:00 19.7 10 Norte 26 Norte 0 -- -- 47
2019-06-07 19:00:00 20.6 13 Noroeste 24 Noroeste 0 -- -- 34
2019-06-07 18:00:00 20.6 8 Norte 27 Noroeste 0 -- -- 35
2019-06-07 17:00:00 20.2 10 Noroeste 30 Noroeste 0 -- -- 35
2019-06-07 16:00:00 20 12 Noroeste 30 Noroeste 0 -- -- 38
2019-06-07 15:00:00 19.7 15 Noroeste 28 Oeste 0 -- -- 38
2019-06-07 14:00:00 19.5 13 Oeste 31 Oeste 0 -- -- 40
2019-06-07 13:00:00 18.7 16 Oeste 36 Noroeste 0 -- -- 42
2019-06-07 12:00:00 17.7 18 Oeste 33 Oeste 0 -- -- 45
2019-06-07 11:00:00 16.9 13 Oeste 28 Oeste 0.2 -- -- 46
2019-06-07 10:00:00 15.6 15 Oeste 28 Oeste 0 -- -- 49
2019-06-07 09:00:00 14.7 8 Oeste 24 Sudoeste 0 -- -- 52
2019-06-07 08:00:00 12.5 11 Oeste 29 Oeste 0 -- -- 60
2019-06-07 07:00:00 12.2 19 Oeste 35 Oeste 0 -- -- 65
2019-06-07 06:00:00 12.1 23 Oeste 41 Oeste 0 -- -- 70
2019-06-07 05:00:00 13.2 32 Oeste 53 Oeste 1.2 -- -- 73
2019-06-07 04:00:00 17 22 Sur 57 Sudeste 0 -- -- 65
2019-06-07 03:00:00 17.3 33 Sudeste 63 Sur 0 -- -- 61
2019-06-07 02:00:00 17.7 34 Sudeste 69 Sur 0 -- -- 58
2019-06-07 01:00:00 18.1 32 Sudeste 62 Sudeste 0 -- -- 56
2019-06-07 00:00:00 18.7 24 Sudeste 62 Sudeste 0 -- -- 52
2019-06-06 23:00:00 19.1 22 Sudeste 51 Sudeste 0 -- -- 51
2019-06-06 22:00:00 19.6 24 Sudeste 55 Sudeste 0 -- -- 49
2019-06-06 21:00:00 20.9 19 Sudeste 42 Sudeste 0 -- -- 47
2019-06-06 20:00:00 21.7 20 Sudeste 55 Sudeste 0 -- -- 47
2019-06-06 19:00:00 22.2 24 Sudeste 54 Sudeste 0 -- -- 42
2019-06-06 18:00:00 23.2 20 Sudeste 48 Sudeste 0 -- -- 38
2019-06-06 17:00:00 23.7 29 Sur 48 Sur 0 -- -- 36
2019-06-06 16:00:00 23.4 28 Sur 45 Sur 0 -- -- 33
2019-06-06 15:00:00 22.6 18 Sur 40 Sur 0 -- -- 39
2019-06-06 14:00:00 21 20 Sur 45 Sudeste 0 -- -- 42
2019-06-06 13:00:00 20.4 18 Sur 35 Sudeste 0 -- -- 49
2019-06-06 12:00:00 19 20 Sur 32 Sudoeste 0 -- -- 57
2019-06-06 11:00:00 15.7 5 Norte 10 Noroeste 0 -- -- 64
2019-06-06 10:00:00 12.9 3 Nordeste 8 Nordeste 0 -- -- 71
2019-06-06 09:00:00 11 3 Norte 5 Nordeste 0 -- -- 81
2019-06-06 08:00:00 9.2 0 Calma 5 Sur 0 -- -- 89
2019-06-06 07:00:00 8.4 3 Sudoeste 4 Sudoeste 0 -- -- 90
2019-06-06 06:00:00 8.4 2 Sur 6 Norte 0 -- -- 88
2019-06-06 05:00:00 8.8 4 Este 10 Sur 0 -- -- 84
2019-06-06 04:00:00 9 9 Sudeste 13 Sudeste 0 -- -- 83
2019-06-06 03:00:00 9.4 5 Sudeste 12 Este 0 -- -- 79
2019-06-06 02:00:00 9.8 7 Sudeste 12 Este 0 -- -- 77
2019-06-06 01:00:00 10.5 3 Nordeste 12 Norte 0 -- -- 73
2019-06-06 00:00:00 10.5 7 Este 22 Nordeste 0 -- -- 74
2019-06-05 23:00:00 10.6 4 Este 12 Este 0 -- -- 76
2019-06-05 22:00:00 11.9 3 Nordeste 24 Nordeste 0 -- -- 71
2019-06-05 21:00:00 13.5 7 Norte 28 Norte 0 -- -- 67
2019-06-05 20:00:00 15.2 14 Norte 27 Norte 0 -- -- 60
2019-06-05 19:00:00 15.7 15 Norte 33 Norte 0 -- -- 61
2019-06-05 18:00:00 16.2 19 Norte 33 Norte 0 -- -- 56
2019-06-05 17:00:00 16.7 16 Norte 31 Norte 0 -- -- 56
2019-06-05 16:00:00 15.8 10 Norte 30 Norte 0 -- -- 67
2019-06-05 15:00:00 14.5 17 Noroeste 30 Norte 0 -- -- 66
2019-06-05 14:00:00 13.4 8 Norte 22 Noroeste 0 -- -- 73
2019-06-05 13:00:00 12.7 13 Nordeste 26 Norte 0 -- -- 76
2019-06-05 12:00:00 12.7 12 Norte 24 Noroeste 0 -- -- 77
2019-06-05 11:00:00 11.2 13 Noroeste 23 Noroeste 1.6 -- -- 86
2019-06-05 10:00:00 10.7 7 Norte 25 Oeste 4.4 -- -- 89
2019-06-05 09:00:00 11 13 Oeste 21 Oeste 0.8 -- -- 89
2019-06-05 08:00:00 11.1 4 Este 17 Este 1.4 -- -- 93
2019-06-05 07:00:00 11 9 Este 19 Este 1.8 -- -- 93
2019-06-05 06:00:00 11.3 5 Noroeste 20 Este 4.4 -- -- 91
2019-06-05 05:00:00 11.5 5 Sudeste 15 Sudeste 0 -- -- 87
2019-06-05 04:00:00 11.9 7 Este 15 Este 1.6 -- -- 87
2019-06-05 03:00:00 12.8 8 Este 15 Este 0 -- -- 79
2019-06-05 02:00:00 13.3 5 Nordeste 14 Nordeste 0 -- -- 77
2019-06-05 01:00:00 13.6 6 Norte 16 Norte 0 -- -- 76
2019-06-05 00:00:00 14.1 9 Nordeste 16 Norte 0 -- -- 78
2019-06-04 23:00:00 15.2 9 Nordeste 23 Nordeste 0 -- -- 78
2019-06-04 22:00:00 15.8 13 Norte 26 Noroeste 0 -- -- 78
2019-06-04 21:00:00 16.4 11 Nordeste 31 Noroeste 0 -- -- 79
2019-06-04 20:00:00 17.9 6 Noroeste 22 Norte 0.6 -- -- 77
2019-06-04 19:00:00 22.3 11 Norte 30 Noroeste 0 -- -- 62
2019-06-04 18:00:00 29.6 13 Sur 34 Sur 0 -- -- 32
2019-06-04 17:00:00 30.2 23 Sur 38 Sudeste 0 -- -- 31
2019-06-04 16:00:00 31.9 15 Sudeste 40 Sur 0 -- -- 29
2019-06-04 15:00:00 31 23 Sudeste 44 Sur 0 -- -- 29
2019-06-04 14:00:00 30.9 18 Sur 42 Sur 0 -- -- 30
2019-06-04 13:00:00 30 18 Sur 40 Sur 0 -- -- 30
2019-06-04 12:00:00 28.3 19 Sur 42 Sur 0 -- -- 33
2019-06-04 11:00:00 24.4 5 Norte 10 Norte 0 -- -- 44
2019-06-04 10:00:00 21.4 4 Noroeste 6 Norte 0 -- -- 46
2019-06-04 09:00:00 18 0 Calma 5 Nordeste 0 -- -- 61
2019-06-04 08:00:00 16 2 Este 5 Oeste 0 -- -- 67
2019-06-04 07:00:00 14.5 2 Nordeste 4 Nordeste 0 -- -- 68
2019-06-04 06:00:00 14.4 3 Este 9 Sudeste 0 -- -- 67
2019-06-04 05:00:00 15.4 0 Calma 11 Sur 0 -- -- 64
2019-06-04 04:00:00 16.8 2 Noroeste 8 Sur 0 -- -- 61
2019-06-04 03:00:00 18.3 5 Sudoeste 10 Sudoeste 0 -- -- 55
2019-06-04 02:00:00 19.9 5 Sudoeste 10 Sudoeste 0 -- -- 52
2019-06-04 01:00:00 21.9 4 Oeste 13 Sudoeste 0 -- -- 48
2019-06-04 00:00:00 23.1 8 Oeste 13 Sudoeste 0 -- -- 46
2019-06-03 23:00:00 24.3 3 Noroeste 12 Este 0 -- -- 44
2019-06-03 22:00:00 26 3 Sudoeste 19 Sur 0 -- -- 41
2019-06-03 21:00:00 28.1 5 Sudeste 25 Sur 0 -- -- 36
2019-06-03 20:00:00 30 13 Sur 27 Sur 0 -- -- 32
2019-06-03 19:00:00 31.8 15 Sudoeste 26 Sudoeste 0 -- -- 31
2019-06-03 18:00:00 32.1 9 Sur 18 Sur 0 -- -- 30
2019-06-03 17:00:00 30.5 7 Sur 14 Nordeste 0 -- -- 37
2019-06-03 16:00:00 30.3 8 Este 23 Sur 0 -- -- 36
2019-06-03 15:00:00 29.3 7 Sur 21 Sudeste 0 -- -- 35
2019-06-03 14:00:00 26.6 6 Nordeste 14 Nordeste 0 -- -- 42
2019-06-03 13:00:00 24.7 2 Este 10 Nordeste 0 -- -- 45
2019-06-03 12:00:00 22.9 4 Nordeste 8 Noroeste 0 -- -- 54
2019-06-03 11:00:00 20.7 2 Este 8 Nordeste 0 -- -- 60
2019-06-03 10:00:00 19.2 3 Nordeste 6 Este 0 -- -- 69
2019-06-03 09:00:00 17.1 2 Sudoeste 8 Noroeste 0 -- -- 75
2019-06-03 08:00:00 16.4 4 Sudeste 13 Sur 0 -- -- 76
2019-06-03 07:00:00 15.7 6 Sur 13 Sudoeste 0 -- -- 77
2019-06-03 06:00:00 16.5 6 Sudeste 10 Oeste 0 -- -- 77
2019-06-03 05:00:00 16.8 6 Oeste 12 Sur 0 -- -- 74
2019-06-03 04:00:00 17.3 2 Oeste 9 Sudoeste 0 -- -- 78
2019-06-03 03:00:00 17.9 2 Sur 9 Sur 0 -- -- 77
2019-06-03 02:00:00 18.5 4 Oeste 10 Sur 0 -- -- 74
2019-06-03 01:00:00 20.1 9 Sur 12 Sur 0 -- -- 70
2019-06-03 00:00:00 21.4 3 Norte 13 Sur 0 -- -- 66
2019-06-02 23:00:00 23.2 5 Este 12 Sudeste 0 -- -- 57
2019-06-02 22:00:00 25.4 3 Este 6 Sudeste 0 -- -- 51
2019-06-02 21:00:00 27.7 3 Este 7 Sur 0 -- -- 43
2019-06-02 20:00:00 30.3 3 Sudoeste 12 Sudoeste 0 -- -- 38
2019-06-02 19:00:00 31.4 7 Sudoeste 13 Sudoeste 0 -- -- 33
2019-06-02 18:00:00 32.5 7 Sudoeste 17 Sudoeste 0 -- -- 29
2019-06-02 17:00:00 32.6 9 Sudoeste 25 Sudoeste 0 -- -- 32
2019-06-02 16:00:00 32.6 15 Sur 27 Sur 0 -- -- 30
2019-06-02 15:00:00 31.7 12 Sur 30 Sur 0 -- -- 31
2019-06-02 14:00:00 30.8 17 Sur 32 Sur 0 -- -- 33
2019-06-02 13:00:00 29.1 12 Sudoeste 26 Sudeste 0 -- -- 36
2019-06-02 12:00:00 26.3 5 Nordeste 9 Nordeste 0 -- -- 45
2019-06-02 11:00:00 23.6 4 Noroeste 8 Este 0 -- -- 53
2019-06-02 10:00:00 21 4 Nordeste 8 Nordeste 0 -- -- 57
2019-06-02 09:00:00 17.9 3 Noroeste 5 Noroeste 0 -- -- 62
2019-06-02 08:00:00 15.4 2 Oeste 5 Sudoeste 0 -- -- 73
2019-06-02 07:00:00 13.5 4 Sudoeste 9 Sur 0 -- -- 76
2019-06-02 06:00:00 13.2 4 Oeste 8 Sur 0 -- -- 76
2019-06-02 05:00:00 14 2 Sudoeste 5 Sudeste 0 -- -- 73
2019-06-02 04:00:00 15.2 0 Calma 5 Este 0 -- -- 65
2019-06-02 03:00:00 15.3 0 Calma 5 Sudeste 0 -- -- 66
2019-06-02 02:00:00 15.9 0 Calma 11 Sur 0 -- -- 62
2019-06-02 01:00:00 16.7 5 Oeste 9 Oeste 0 -- -- 60
2019-06-02 00:00:00 18.8 4 Sudoeste 10 Oeste 0 -- -- 53
2019-06-01 23:00:00 20.4 3 Sudeste 6 Este 0 -- -- 49
2019-06-01 22:00:00 23.5 3 Nordeste 13 Sur 0 -- -- 41
2019-06-01 21:00:00 28.4 10 Sur 14 Sudoeste 0 -- -- 31
2019-06-01 20:00:00 31.3 7 Sudoeste 18 Sur 0 -- -- 28
2019-06-01 19:00:00 31.6 8 Sudoeste 16 Sur 0 -- -- 28
2019-06-01 18:00:00 31.5 8 Sudoeste 21 Sur 0 -- -- 27
2019-06-01 17:00:00 31.3 10 Sur 27 Sur 0 -- -- 29
2019-06-01 16:00:00 30.8 14 Sudoeste 28 Sudoeste 0 -- -- 32
2019-06-01 15:00:00 30.6 14 Sudoeste 32 Sur 0 -- -- 31
2019-06-01 14:00:00 29.6 19 Sudoeste 31 Sudoeste 0 -- -- 35
2019-06-01 13:00:00 27.9 11 Sudoeste 23 Sudoeste 0 -- -- 42
2019-06-01 12:00:00 25.4 11 Sur 19 Sur 0 -- -- 50
2019-06-01 11:00:00 21.9 4 Noroeste 9 Noroeste 0 -- -- 59
2019-06-01 10:00:00 18.4 4 Noroeste 8 Noroeste 0 -- -- 70
2019-06-01 09:00:00 16.6 3 Noroeste 5 Norte 0 -- -- 74
2019-06-01 08:00:00 15.1 0 Calma 3 Nordeste 0 -- -- 80
2019-06-01 07:00:00 13.1 0 Calma 5 Sudeste 0 -- -- 86
2019-06-01 06:00:00 13.2 0 Calma 5 Este 0 -- -- 86
2019-06-01 05:00:00 13.7 0 Calma 5 Sudoeste 0 -- -- 85
2019-06-01 04:00:00 14.4 2 Oeste 4 Sudoeste 0 -- -- 84
2019-06-01 03:00:00 14.8 0 Calma 9 Oeste 0 -- -- 82
2019-06-01 02:00:00 15.5 7 Sudoeste 10 Oeste 0 -- -- 81
2019-06-01 01:00:00 17 4 Oeste 9 Sur 0 -- -- 75
2019-06-01 00:00:00 18.7 0 Calma 5 Sudeste 0 -- -- 69
2019-05-31 23:00:00 20.6 3 Sudeste 8 Sudeste 0 -- -- 63
2019-05-31 22:00:00 23.2 3 Sudoeste 13 Este 0 -- -- 54
2019-05-31 21:00:00 27.9 4 Sudeste 6 Este 0 -- -- 40
2019-05-31 20:00:00 29.6 2 Nordeste 8 Este 0 -- -- 34
2019-05-31 19:00:00 29.6 2 Norte 10 Este 0 -- -- 34
2019-05-31 18:00:00 29.5 5 Nordeste 12 Noroeste 0 -- -- 32
2019-05-31 17:00:00 28.4 4 Sudeste 17 Noroeste 0 -- -- 35
2019-05-31 16:00:00 28.3 7 Norte 18 Noroeste 0 -- -- 36
2019-05-31 15:00:00 26.9 10 Noroeste 18 Noroeste 0 -- -- 36
2019-05-31 14:00:00 25.7 11 Noroeste 18 Noroeste 0 -- -- 43
2019-05-31 13:00:00 24.6 5 Noroeste 12 Nordeste 0 -- -- 47
2019-05-31 12:00:00 22.3 5 Norte 10 Nordeste 0 -- -- 52
2019-05-31 11:00:00 19.2 3 Nordeste 9 Nordeste 0 -- -- 58
2019-05-31 10:00:00 16.5 5 Nordeste 9 Nordeste 0 -- -- 69
2019-05-31 09:00:00 14.1 3 Nordeste 13 Este 0 -- -- 74
2019-05-31 08:00:00 12.2 3 Este 6 Nordeste 0 -- -- 83
2019-05-31 07:00:00 9.9 2 Este 6 Sudeste 0 -- -- 89
2019-05-31 06:00:00 10.3 2 Este 5 Sur 0 -- -- 88
2019-05-31 05:00:00 10.8 4 Oeste 7 Sudoeste 0 -- -- 87
2019-05-31 04:00:00 12.1 2 Noroeste 8 Sudeste 0 -- -- 82
2019-05-31 03:00:00 14.9 2 Este 14 Sudeste 0 -- -- 74
2019-05-31 02:00:00 15.7 9 Sudeste 13 Sudeste 0 -- -- 72
2019-05-31 01:00:00 16.4 8 Este 14 Este 0 -- -- 69
2019-05-31 00:00:00 17.9 5 Nordeste 14 Nordeste 0 -- -- 63
2019-05-30 23:00:00 18.9 3 Norte 21 Norte 0 -- -- 59
2019-05-30 22:00:00 20.1 11 Norte 26 Noroeste 0 -- -- 57
2019-05-30 21:00:00 23.2 8 Norte 32 Norte 0 -- -- 48
2019-05-30 20:00:00 25 14 Norte 31 Norte 0 -- -- 41
2019-05-30 19:00:00 26.8 13 Norte 32 Norte 0 -- -- 31
2019-05-30 18:00:00 27.6 17 Noroeste 32 Noroeste 0 -- -- 34
2019-05-30 17:00:00 27.8 16 Noroeste 30 Norte 0 -- -- 31
2019-05-30 16:00:00 28 11 Norte 27 Noroeste 0 -- -- 32
2019-05-30 15:00:00 26.8 10 Norte 26 Noroeste 0 -- -- 38
2019-05-30 14:00:00 24.9 4 Norte 18 Noroeste 0 -- -- 45
2019-05-30 13:00:00 22.5 4 Este 15 Nordeste 0 -- -- 50
2019-05-30 12:00:00 20.5 6 Este 15 Este 0 -- -- 53
2019-05-30 11:00:00 18.4 8 Nordeste 17 Nordeste 0 -- -- 61
2019-05-30 10:00:00 15.5 5 Nordeste 11 Nordeste 0 -- -- 64
2019-05-30 09:00:00 12.4 4 Nordeste 8 Este 0 -- -- 74
2019-05-30 08:00:00 9.9 3 Sur 6 Noroeste 0 -- -- 81
2019-05-30 07:00:00 8.2 3 Sudeste 10 Sudeste 0 -- -- 85
2019-05-30 06:00:00 8.2 4 Nordeste 14 Este 0 -- -- 84
2019-05-30 05:00:00 9.3 7 Este 18 Este 0 -- -- 80
2019-05-30 04:00:00 10.2 9 Este 21 Nordeste 0 -- -- 76
2019-05-30 03:00:00 10.5 14 Nordeste 19 Nordeste 0 -- -- 75
2019-05-30 02:00:00 10.4 6 Sur 10 Sudeste 0 -- -- 74
2019-05-30 01:00:00 11.5 7 Noroeste 21 Oeste 0 -- -- 69
2019-05-30 00:00:00 11.9 15 Oeste 22 Oeste 0 -- -- 68
2019-05-29 23:00:00 11.6 8 Sudoeste 18 Norte 0 -- -- 70
2019-05-29 22:00:00 13.6 9 Norte 27 Norte 0 -- -- 63
2019-05-29 21:00:00 15.5 13 Norte 37 Norte 0 -- -- 56
2019-05-29 20:00:00 17 16 Norte 41 Norte 0 -- -- 52
2019-05-29 19:00:00 17.8 22 Norte 40 Norte 0 -- -- 48
2019-05-29 18:00:00 18.5 19 Norte 48 Nordeste 0 -- -- 47
2019-05-29 17:00:00 18.6 21 Norte 47 Nordeste 0 -- -- 47
2019-05-29 16:00:00 18.6 22 Norte 49 Norte 0 -- -- 47
2019-05-29 15:00:00 18.8 20 Norte 49 Norte 0 -- -- 46
2019-05-29 14:00:00 17.8 22 Norte 45 Nordeste 0 -- -- 50
2019-05-29 13:00:00 16.5 22 Norte 41 Norte 0 -- -- 52
2019-05-29 12:00:00 15.9 15 Norte 36 Norte 0 -- -- 56
2019-05-29 11:00:00 14.1 17 Noroeste 37 Norte 0 -- -- 59
2019-05-29 10:00:00 13.3 15 Norte 37 Noroeste 0 -- -- 63
2019-05-29 09:00:00 12.3 13 Noroeste 22 Noroeste 0 -- -- 72
2019-05-29 08:00:00 11.2 5 Noroeste 9 Noroeste 0 -- -- 76
2019-05-29 07:00:00 10 3 Norte 27 Noroeste 0 -- -- 80
2019-05-29 06:00:00 10.3 11 Noroeste 21 Noroeste 0 -- -- 76
2019-05-29 05:00:00 9.8 3 Nordeste 26 Noroeste 0 -- -- 76
2019-05-29 04:00:00 10.5 12 Noroeste 30 Noroeste 0 -- -- 74
2019-05-29 03:00:00 10.6 13 Noroeste 27 Noroeste 0 -- -- 76
2019-05-29 02:00:00 10.5 14 Noroeste 32 Noroeste 0 -- -- 75
2019-05-29 01:00:00 10.7 13 Norte 34 Norte 0 -- -- 73
2019-05-29 00:00:00 10.5 14 Noroeste 37 Noroeste 0 -- -- 74
2019-05-28 23:00:00 10.9 17 Noroeste 39 Norte 0 -- -- 73
2019-05-28 22:00:00 11.3 17 Norte 35 Norte 0 -- -- 73
2019-05-28 21:00:00 11.9 13 Norte 40 Norte 0 -- -- 68
2019-05-28 20:00:00 13.4 21 Noroeste 38 Noroeste 0 -- -- 61
2019-05-28 19:00:00 14.3 21 Norte 44 Noroeste 0 -- -- 56
2019-05-28 18:00:00 14.8 24 Noroeste 47 Noroeste 0 -- -- 58
2019-05-28 17:00:00 14.6 17 Norte 42 Norte 0 -- -- 61
2019-05-28 16:00:00 14.1 18 Norte 44 Nordeste 0 -- -- 66
2019-05-28 15:00:00 16 21 Noroeste 38 Noroeste 0 -- -- 56
2019-05-28 14:00:00 16 21 Norte 44 Noroeste 0 -- -- 58
2019-05-28 13:00:00 15.2 19 Noroeste 33 Nordeste 0 -- -- 65
2019-05-28 12:00:00 13.7 14 Norte 27 Norte 0 -- -- 70
2019-05-28 11:00:00 13.3 17 Norte 35 Nordeste 0 -- -- 70
2019-05-28 10:00:00 13.5 18 Norte 33 Norte 0 -- -- 66
2019-05-28 09:00:00 12.1 15 Noroeste 29 Norte 0 -- -- 69
2019-05-28 08:00:00 11.4 15 Noroeste 35 Noroeste 0 -- -- 69
2019-05-28 07:00:00 10.9 13 Norte 31 Noroeste 0 -- -- 72
2019-05-28 06:00:00 10.8 15 Noroeste 28 Noroeste 0 -- -- 75
2019-05-28 05:00:00 10.9 17 Norte 28 Noroeste 0 -- -- 75
2019-05-28 04:00:00 10.5 12 Norte 31 Noroeste 0 -- -- 75
2019-05-28 03:00:00 10.8 11 Noroeste 33 Norte 0 -- -- 70
2019-05-28 02:00:00 11.2 9 Norte 28 Norte 0 -- -- 72
2019-05-28 01:00:00 12.1 17 Norte 34 Norte 0 -- -- 69
2019-05-28 00:00:00 12.2 13 Noroeste 26 Noroeste 0 -- -- 75
2019-05-27 23:00:00 13.2 5 Norte 37 Noroeste 0 -- -- 67
2019-05-27 22:00:00 13.9 21 Norte 48 Noroeste 0 -- -- 64
2019-05-27 21:00:00 15.5 22 Norte 42 Noroeste 0 -- -- 67
2019-05-27 20:00:00 17.3 21 Noroeste 38 Noroeste 0 -- -- 66
2019-05-27 19:00:00 18 19 Norte 36 Norte 0 -- -- 64
2019-05-27 18:00:00 18.2 21 Norte 37 Norte 0 -- -- 63
2019-05-27 17:00:00 17.9 14 Norte 38 Noroeste 0 -- -- 66
2019-05-27 16:00:00 17.6 15 Norte 33 Noroeste 0 -- -- 64
2019-05-27 15:00:00 18.7 16 Noroeste 38 Noroeste 0 -- -- 63
2019-05-27 14:00:00 19.9 15 Norte 29 Norte 0 -- -- 59
2019-05-27 13:00:00 18.9 14 Norte 49 Noroeste 0 -- -- 62
2019-05-27 12:00:00 17.6 16 Norte 36 Noroeste 0 -- -- 63
2019-05-27 11:00:00 15.8 15 Noroeste 32 Noroeste 0 -- -- 67
2019-05-27 10:00:00 14.6 12 Norte 35 Norte 0 -- -- 70
2019-05-27 09:00:00 13.7 16 Norte 32 Noroeste 0 -- -- 73
2019-05-27 08:00:00 12.9 16 Noroeste 28 Noroeste 0 -- -- 75
2019-05-27 07:00:00 11.9 13 Noroeste 24 Norte 0 -- -- 78
2019-05-27 06:00:00 11.9 14 Norte 28 Noroeste 0 -- -- 77
2019-05-27 05:00:00 11.9 15 Noroeste 32 Noroeste 0 -- -- 78
2019-05-27 04:00:00 11.9 15 Norte 27 Noroeste 0 -- -- 78
2019-05-27 03:00:00 12 18 Noroeste 29 Noroeste 0 -- -- 78
2019-05-27 02:00:00 12.1 16 Noroeste 27 Noroeste 0 -- -- 79
2019-05-27 01:00:00 12.6 13 Noroeste 26 Noroeste 0 -- -- 76
2019-05-27 00:00:00 13.2 10 Norte 25 Noroeste 0 -- -- 75
2019-05-26 23:00:00 13.3 14 Noroeste 31 Noroeste 0 -- -- 74
2019-05-26 22:00:00 13.6 16 Noroeste 31 Norte 0 -- -- 72
2019-05-26 21:00:00 14.2 17 Noroeste 36 Norte 0 -- -- 72
2019-05-26 20:00:00 15.8 20 Noroeste 37 Norte 0 -- -- 65
2019-05-26 19:00:00 16.6 23 Noroeste 39 Noroeste 0 -- -- 67
2019-05-26 18:00:00 16.8 20 Noroeste 37 Noroeste 0 -- -- 65
2019-05-26 17:00:00 16.9 21 Noroeste 40 Norte 0 -- -- 67
2019-05-26 16:00:00 18 19 Noroeste 37 Noroeste 0 -- -- 65
2019-05-26 15:00:00 17.9 19 Norte 42 Noroeste 0 -- -- 60
2019-05-26 14:00:00 17.4 21 Norte 41 Norte 0 -- -- 60
2019-05-26 13:00:00 18 19 Noroeste 40 Norte 0 -- -- 58
2019-05-26 12:00:00 16.8 20 Norte 39 Noroeste 0 -- -- 60
2019-05-26 11:00:00 16.4 18 Norte 41 Norte 0 -- -- 61
2019-05-26 10:00:00 15 22 Norte 42 Noroeste 0 -- -- 63
2019-05-26 09:00:00 13.6 17 Noroeste 32 Noroeste 0 -- -- 71
2019-05-26 08:00:00 12.8 15 Norte 26 Noroeste 0 -- -- 72
2019-05-26 07:00:00 11.3 13 Norte 26 Norte 0 -- -- 74
2019-05-26 06:00:00 11.2 14 Norte 27 Nordeste 0 -- -- 77
2019-05-26 05:00:00 11.2 8 Norte 28 Nordeste 0 -- -- 73
2019-05-26 04:00:00 11.9 13 Norte 38 Noroeste 0 -- -- 69
2019-05-26 03:00:00 11.9 18 Norte 37 Norte 0 -- -- 72
2019-05-26 02:00:00 11.8 10 Norte 23 Noroeste 0 -- -- 77
2019-05-26 01:00:00 11.8 9 Norte 36 Noroeste 0 -- -- 76
2019-05-26 00:00:00 12.2 22 Noroeste 42 Norte 0 -- -- 72
2019-05-25 23:00:00 12.3 23 Noroeste 41 Noroeste 0 -- -- 74
2019-05-25 22:00:00 12.3 17 Norte 43 Noroeste 0 -- -- 75
2019-05-25 21:00:00 12.7 22 Noroeste 50 Noroeste 0 -- -- 75
2019-05-25 20:00:00 14.9 20 Noroeste 41 Noroeste 0 -- -- 70
2019-05-25 19:00:00 17.1 21 Noroeste 40 Norte 0 -- -- 64
2019-05-25 18:00:00 17.7 21 Norte 45 Noroeste 0 -- -- 61
2019-05-25 17:00:00 17.5 18 Norte 40 Norte 0 -- -- 64
2019-05-25 16:00:00 17.6 17 Norte 44 Norte 0 -- -- 62
2019-05-25 15:00:00 17.3 19 Norte 44 Nordeste 0 -- -- 61
2019-05-25 14:00:00 16.6 22 Noroeste 49 Noroeste 0 -- -- 63
2019-05-25 13:00:00 17.1 16 Noroeste 42 Norte 0 -- -- 65
2019-05-25 12:00:00 15.8 16 Norte 40 Nordeste 0 -- -- 65
2019-05-25 11:00:00 15.3 17 Norte 44 Nordeste 0 -- -- 64
2019-05-25 10:00:00 14.2 17 Nordeste 31 Nordeste 0 -- -- 70
2019-05-25 09:00:00 13.1 10 Norte 31 Nordeste 0 -- -- 72
2019-05-25 08:00:00 12.5 7 Norte 31 Noroeste 0 -- -- 76
2019-05-25 07:00:00 12.4 10 Norte 26 Noroeste 0 -- -- 75
2019-05-25 06:00:00 12.4 14 Noroeste 28 Noroeste 0 -- -- 74
2019-05-25 05:00:00 12.4 13 Noroeste 25 Norte 0 -- -- 76
2019-05-25 04:00:00 12.4 13 Noroeste 29 Noroeste 0 -- -- 75
2019-05-25 03:00:00 12.3 13 Norte 33 Noroeste 0 -- -- 77
2019-05-25 02:00:00 12.4 16 Norte 35 Nordeste 0 -- -- 75
2019-05-25 01:00:00 13 19 Norte 41 Norte 0 -- -- 71
2019-05-25 00:00:00 12.8 19 Norte 43 Norte 0 -- -- 76
2019-05-24 23:00:00 13.1 13 Norte 33 Nordeste 0 -- -- 77
2019-05-24 22:00:00 13 14 Noroeste 32 Noroeste 0 -- -- 80
2019-05-24 21:00:00 13.6 11 Norte 35 Noroeste 0 -- -- 76
2019-05-24 20:00:00 13.9 18 Norte 33 Norte 0 -- -- 74
2019-05-24 19:00:00 14.7 17 Norte 35 Norte 0 -- -- 70
2019-05-24 18:00:00 16.6 17 Norte 35 Nordeste 0 -- -- 67
2019-05-24 17:00:00 16.5 21 Noroeste 37 Noroeste 0 -- -- 68
2019-05-24 16:00:00 15.4 19 Noroeste 45 Nordeste 0 -- -- 71
2019-05-24 15:00:00 16.2 14 Norte 38 Norte 0 -- -- 66
2019-05-24 14:00:00 16 16 Norte 35 Noroeste 0 -- -- 71
2019-05-24 13:00:00 14.9 14 Norte 29 Norte 0 -- -- 72
2019-05-24 12:00:00 14.7 10 Norte 33 Norte 0 -- -- 75
2019-05-24 11:00:00 13.6 9 Norte 24 Nordeste 0 -- -- 80
2019-05-24 10:00:00 13 5 Noroeste 18 Noroeste 0 -- -- 85
2019-05-24 09:00:00 12.3 7 Norte 27 Oeste 0 -- -- 90
2019-05-24 08:00:00 11.6 5 Norte 14 Oeste 2.4 -- -- 92
2019-05-24 07:00:00 11.8 8 Oeste 15 Norte 2.6 -- -- 90
2019-05-24 06:00:00 11.9 6 Norte 17 Norte 4.4 -- -- 91
2019-05-24 05:00:00 12 6 Norte 18 Norte 1 -- -- 91
2019-05-24 04:00:00 12 8 Este 15 Este 0 -- -- 89
2019-05-24 03:00:00 11.9 8 Este 19 Este 1 -- -- 88
2019-05-24 02:00:00 12.2 9 Nordeste 25 Norte 1.4 -- -- 87
2019-05-24 01:00:00 13.1 7 Nordeste 20 Nordeste 0 -- -- 79
2019-05-24 00:00:00 13.5 8 Norte 28 Nordeste 0.2 -- -- 78
2019-05-23 23:00:00 14.4 8 Nordeste 17 Norte 0 -- -- 74
2019-05-23 22:00:00 16 8 Norte 17 Norte 0 -- -- 72
2019-05-23 21:00:00 18.1 8 Norte 13 Norte 0 -- -- 78
2019-05-23 20:00:00 17.5 5 Sur 37 Sudeste 0 -- -- 80
2019-05-23 19:00:00 16.5 18 Este 37 Sudeste 2.8 -- -- 84
2019-05-23 18:00:00 21.8 11 Oeste 24 Oeste 1.2 -- -- 62
2019-05-23 17:00:00 25.7 5 Nordeste 10 Norte 0 -- -- 40
2019-05-23 16:00:00 25.5 5 Nordeste 11 Nordeste 0 -- -- 40
2019-05-23 15:00:00 24.5 5 Nordeste 9 Nordeste 0 -- -- 43
2019-05-23 14:00:00 23.9 5 Nordeste 9 Nordeste 0 -- -- 43
2019-05-23 13:00:00 22.1 5 Nordeste 9 Nordeste 0 -- -- 51
2019-05-23 12:00:00 19.5 3 Nordeste 9 Nordeste 0 -- -- 57
2019-05-23 11:00:00 17.1 3 Oeste 8 Oeste 0 -- -- 66
2019-05-23 10:00:00 14.8 3 Noroeste 6 Noroeste 0 -- -- 72
2019-05-23 09:00:00 13.1 3 Nordeste 5 Nordeste 0 -- -- 77
2019-05-23 08:00:00 12.3 3 Este 6 Sudeste 0 -- -- 82
2019-05-23 07:00:00 10.1 4 Sudeste 8 Sudeste 0 -- -- 89
2019-05-23 06:00:00 10 0 Calma 4 Sudeste 0 -- -- 89
2019-05-23 05:00:00 10.2 0 Calma 6 Sudeste 0 -- -- 87
2019-05-23 04:00:00 10.6 0 Calma 4 Sudeste 0 -- -- 86
2019-05-23 03:00:00 11.1 0 Calma 6 Sudoeste 0 -- -- 86
2019-05-23 02:00:00 11.9 5 Sudoeste 10 Sur 0 -- -- 82
2019-05-23 01:00:00 13 3 Sudoeste 8 Oeste 0 -- -- 79
2019-05-23 00:00:00 14.8 3 Este 6 Sudeste 0 -- -- 74
2019-05-22 23:00:00 16.5 3 Oeste 9 Sur 0 -- -- 67
2019-05-22 22:00:00 19.2 0 Calma 12 Oeste 0 -- -- 58
2019-05-22 21:00:00 21.7 5 Noroeste 21 Nordeste 0 -- -- 52
2019-05-22 20:00:00 24.3 7 Nordeste 12 Nordeste 0 -- -- 38
2019-05-22 19:00:00 24.8 6 Nordeste 11 Nordeste 0 -- -- 33
2019-05-22 18:00:00 25.1 6 Nordeste 14 Norte 0 -- -- 37
2019-05-22 17:00:00 24.8 6 Oeste 15 Nordeste 0 -- -- 32
2019-05-22 16:00:00 24.1 6 Norte 20 Noroeste 0 -- -- 26
2019-05-22 15:00:00 23.1 7 Noroeste 17 Noroeste 0 -- -- 29
2019-05-22 14:00:00 22 6 Norte 16 Noroeste 0 -- -- 44
2019-05-22 13:00:00 20.9 6 Nordeste 14 Este 0 -- -- 51
2019-05-22 12:00:00 18.8 4 Norte 10 Noroeste 0 -- -- 59
2019-05-22 11:00:00 16.4 5 Este 9 Este 0 -- -- 68
2019-05-22 10:00:00 13.7 4 Nordeste 9 Nordeste 0 -- -- 73
2019-05-22 09:00:00 11.3 4 Nordeste 8 Nordeste 0 -- -- 80
2019-05-22 08:00:00 9.2 3 Este 8 Sudeste 0 -- -- 87
2019-05-22 07:00:00 6.2 3 Oeste 6 Noroeste 0 -- -- 91
2019-05-22 06:00:00 7.3 2 Nordeste 5 Noroeste 0 -- -- 88
2019-05-22 05:00:00 9.2 5 Sudeste 14 Este 0 -- -- 85
2019-05-22 04:00:00 9.6 8 Sudeste 12 Sudeste 0 -- -- 85
2019-05-22 03:00:00 10.2 3 Sudeste 6 Sur 0 -- -- 82
2019-05-22 02:00:00 11 3 Oeste 9 Sudoeste 0 -- -- 77
2019-05-22 01:00:00 11.4 5 Sudeste 12 Noroeste 0 -- -- 77
2019-05-22 00:00:00 12.7 4 Oeste 20 Noroeste 0 -- -- 71
2019-05-21 23:00:00 13.8 11 Noroeste 22 Noroeste 0 -- -- 66
2019-05-21 22:00:00 15 11 Norte 20 Nordeste 0 -- -- 60
2019-05-21 21:00:00 16.7 8 Norte 26 Norte 0 -- -- 55
2019-05-21 20:00:00 18.2 14 Norte 36 Nordeste 0 -- -- 50
2019-05-21 19:00:00 19.8 12 Norte 32 Noroeste 0 -- -- 48
2019-05-21 18:00:00 20.2 17 Noroeste 32 Noroeste 0 -- -- 46
2019-05-21 17:00:00 20.7 18 Noroeste 29 Norte 0 -- -- 43
2019-05-21 16:00:00 21.5 12 Norte 26 Nordeste 0 -- -- 42
2019-05-21 15:00:00 21.7 10 Norte 24 Norte 0 -- -- 39
2019-05-21 14:00:00 20.3 5 Oeste 14 Oeste 0 -- -- 51
2019-05-21 13:00:00 19.1 4 Norte 10 Oeste 0 -- -- 52
2019-05-21 12:00:00 16.9 3 Este 13 Este 0 -- -- 60
2019-05-21 11:00:00 14.8 3 Norte 11 Este 0 -- -- 65
2019-05-21 10:00:00 12.9 6 Este 13 Nordeste 0 -- -- 71
2019-05-21 09:00:00 10.7 5 Nordeste 8 Nordeste 0 -- -- 80
2019-05-21 08:00:00 7.8 3 Nordeste 5 Este 0 -- -- 85
2019-05-21 07:00:00 5.8 3 Sudoeste 5 Noroeste 0 -- -- 91
2019-05-21 06:00:00 6.1 3 Oeste 8 Nordeste 0 -- -- 89
2019-05-21 05:00:00 8 6 Este 13 Este 0 -- -- 86
2019-05-21 04:00:00 8.5 7 Este 15 Este 0 -- -- 84
2019-05-21 03:00:00 8.8 8 Sudeste 14 Sudeste 0 -- -- 83
2019-05-21 02:00:00 9.3 8 Sudeste 14 Sudeste 0 -- -- 80
2019-05-21 01:00:00 10.3 6 Sudeste 17 Este 0 -- -- 76
2019-05-21 00:00:00 11.1 4 Sur 18 Norte 0 -- -- 73
2019-05-20 23:00:00 12 10 Norte 17 Noroeste 0 -- -- 70
2019-05-20 22:00:00 12.9 7 Noroeste 19 Noroeste 0 -- -- 66
2019-05-20 21:00:00 15.1 10 Norte 22 Norte 0 -- -- 57
2019-05-20 20:00:00 17.2 10 Norte 32 Norte 0 -- -- 51
2019-05-20 19:00:00 18.1 15 Norte 30 Nordeste 0 -- -- 48
2019-05-20 18:00:00 18.3 18 Nordeste 30 Nordeste 0 -- -- 48
2019-05-20 17:00:00 18.4 14 Norte 30 Nordeste 0 -- -- 50
2019-05-20 16:00:00 18.2 13 Norte 30 Nordeste 0 -- -- 49
2019-05-20 15:00:00 17.7 17 Norte 32 Noroeste 0 -- -- 51
2019-05-20 14:00:00 17.4 14 Noroeste 31 Norte 0 -- -- 54
2019-05-20 13:00:00 16.6 12 Norte 31 Noroeste 0 -- -- 56
2019-05-20 12:00:00 14.2 12 Norte 22 Norte 0 -- -- 61
2019-05-20 11:00:00 13.9 12 Noroeste 22 Noroeste 0 -- -- 66
2019-05-20 10:00:00 12.6 11 Noroeste 22 Noroeste 0 -- -- 67
2019-05-20 09:00:00 11.3 9 Norte 17 Noroeste 0 -- -- 69
2019-05-20 08:00:00 9.1 5 Noroeste 12 Oeste 0 -- -- 78
2019-05-20 07:00:00 7.4 2 Oeste 10 Sudoeste 0 -- -- 82
2019-05-20 06:00:00 8 4 Norte 21 Noroeste 0 -- -- 79
2019-05-20 05:00:00 8.5 10 Noroeste 24 Noroeste 0 -- -- 76
2019-05-20 04:00:00 8.3 10 Noroeste 20 Noroeste 0 -- -- 80
2019-05-20 03:00:00 8.8 12 Noroeste 24 Noroeste 0 -- -- 79
2019-05-20 02:00:00 9.3 13 Noroeste 22 Noroeste 0 -- -- 77
2019-05-20 01:00:00 9.5 9 Noroeste 18 Noroeste 0 -- -- 80
2019-05-20 00:00:00 10.1 9 Norte 18 Nordeste 0 -- -- 80
2019-05-19 23:00:00 9.9 6 Norte 13 Noroeste 0 -- -- 81
2019-05-19 22:00:00 10.6 5 Noroeste 21 Noroeste 0 -- -- 77
2019-05-19 21:00:00 11.4 10 Norte 26 Noroeste 0 -- -- 73
2019-05-19 20:00:00 11.7 14 Noroeste 39 Noroeste 0 -- -- 73
2019-05-19 19:00:00 12.1 20 Noroeste 35 Noroeste 0 -- -- 70
2019-05-19 18:00:00 12.2 13 Norte 31 Noroeste 0 -- -- 70
2019-05-19 17:00:00 11.8 19 Noroeste 37 Noroeste 0 -- -- 72
2019-05-19 16:00:00 12.7 18 Noroeste 36 Noroeste 0 -- -- 68
2019-05-19 15:00:00 12.4 13 Noroeste 38 Noroeste 0 -- -- 72
2019-05-19 14:00:00 11.9 21 Noroeste 38 Noroeste 0 -- -- 73
2019-05-19 13:00:00 12.1 16 Noroeste 35 Noroeste 0 -- -- 75
2019-05-19 12:00:00 11.6 13 Noroeste 25 Noroeste 0 -- -- 76
2019-05-19 11:00:00 10.8 4 Norte 9 Noroeste 0 -- -- 83
2019-05-19 10:00:00 8.9 8 Noroeste 13 Noroeste 0.8 -- -- 87
2019-05-19 09:00:00 8.4 7 Oeste 11 Oeste 0.8 -- -- 93
2019-05-19 08:00:00 7.9 2 Sur 8 Sudoeste 0.4 -- -- 96
2019-05-19 07:00:00 7.4 6 Sudoeste 10 Sudoeste 0.4 -- -- 96
2019-05-19 06:00:00 7.4 4 Este 6 Este 0.4 -- -- 96
2019-05-19 05:00:00 7.5 5 Nordeste 7 Nordeste 0.4 -- -- 96
2019-05-19 04:00:00 7.6 3 Este 6 Nordeste 0.4 -- -- 95
2019-05-19 03:00:00 7.5 2 Este 6 Nordeste 0.4 -- -- 95
2019-05-19 02:00:00 7.7 3 Nordeste 5 Este 0.4 -- -- 94
2019-05-19 01:00:00 7.7 4 Este 9 Este 0.4 -- -- 93
2019-05-19 00:00:00 7.9 6 Este 8 Este 0.2 -- -- 91
2019-05-18 23:00:00 8.4 5 Sur 10 Sur 0.6 -- -- 88
2019-05-18 22:00:00 8.7 4 Noroeste 10 Oeste 0.4 -- -- 82
2019-05-18 21:00:00 9.6 6 Nordeste 19 Norte 0 -- -- 78
2019-05-18 20:00:00 10.9 9 Norte 36 Oeste 0 -- -- 68
2019-05-18 19:00:00 12.4 22 Noroeste 36 Oeste 0 -- -- 61
2019-05-18 18:00:00 13.3 22 Noroeste 36 Noroeste 0 -- -- 57
2019-05-18 17:00:00 13.1 17 Noroeste 31 Noroeste 0 -- -- 59
2019-05-18 16:00:00 13.3 18 Norte 32 Noroeste 0 -- -- 64
2019-05-18 15:00:00 14.2 12 Norte 24 Noroeste 0 -- -- 64
2019-05-18 14:00:00 12.5 14 Noroeste 27 Noroeste 0 -- -- 65
2019-05-18 13:00:00 13.2 15 Noroeste 26 Noroeste 0 -- -- 60
2019-05-18 12:00:00 12.1 10 Noroeste 24 Noroeste 0 -- -- 61
2019-05-18 11:00:00 11.4 9 Noroeste 14 Noroeste 0 -- -- 63
2019-05-18 10:00:00 11.3 5 Nordeste 12 Nordeste 0 -- -- 64
2019-05-18 09:00:00 10.1 4 Noroeste 8 Nordeste 0 -- -- 64
2019-05-18 08:00:00 8.5 5 Sur 9 Sur 0 -- -- 75
2019-05-18 07:00:00 6.2 3 Sudoeste 9 Sudoeste 0 -- -- 79
2019-05-18 06:00:00 6.6 4 Sudeste 7 Sudoeste 0 -- -- 82
2019-05-18 05:00:00 7.8 3 Este 13 Nordeste 0 -- -- 81
2019-05-18 04:00:00 8.6 6 Norte 11 Norte 0 -- -- 81
2019-05-18 03:00:00 8.8 3 Norte 12 Noroeste 0 -- -- 79
2019-05-18 02:00:00 8.9 7 Noroeste 15 Noroeste 0 -- -- 77
2019-05-18 01:00:00 8.6 5 Nordeste 19 Noroeste 0 -- -- 81
2019-05-18 00:00:00 9 5 Norte 9 Norte 0 -- -- 79
2019-05-17 23:00:00 9 6 Noroeste 18 Noroeste 0 -- -- 77
2019-05-17 22:00:00 9.7 12 Noroeste 29 Noroeste 0 -- -- 74
2019-05-17 21:00:00 10.7 16 Noroeste 33 Noroeste 0 -- -- 72
2019-05-17 20:00:00 11.1 16 Noroeste 32 Noroeste 0 -- -- 73
2019-05-17 19:00:00 11.1 19 Noroeste 32 Noroeste 0 -- -- 73
2019-05-17 18:00:00 11.7 13 Noroeste 33 Noroeste 0 -- -- 75
2019-05-17 17:00:00 11.8 12 Norte 27 Noroeste 0 -- -- 75
2019-05-17 16:00:00 11.5 18 Noroeste 34 Noroeste 0 -- -- 73
2019-05-17 15:00:00 11.3 18 Noroeste 32 Norte 0 -- -- 75
2019-05-17 14:00:00 11.2 13 Noroeste 35 Noroeste 0 -- -- 78
2019-05-17 13:00:00 10.4 19 Noroeste 36 Noroeste 0.2 -- -- 84
2019-05-17 12:00:00 10.5 13 Oeste 23 Noroeste 0.2 -- -- 89
2019-05-17 11:00:00 10.2 10 Noroeste -- -- -- -- -- 90
2019-05-17 10:00:00 9.9 5 Oeste 10 Oeste 0.2 -- -- 92
2019-05-17 09:00:00 9.1 3 Oeste 7 Oeste 1.4 -- -- 92
2019-05-17 08:00:00 8.5 3 Oeste 6 Oeste 2.2 -- -- 92
2019-05-17 07:00:00 8.5 2 Oeste 21 Norte 4 -- -- 91
2019-05-17 06:00:00 8.7 6 Norte 15 Norte 5.8 -- -- 93
2019-05-17 05:00:00 8.9 6 Este 28 Norte 3.6 -- -- 90
2019-05-17 04:00:00 9.1 13 Noroeste 33 Noroeste 4 -- -- 84
2019-05-17 03:00:00 10.3 9 Oeste 31 Noroeste 8.2 -- -- 89
2019-05-17 02:00:00 11.4 8 Sudoeste 19 Oeste 7.6 -- -- 90
2019-05-17 01:00:00 12 4 Nordeste 12 Norte 3 -- -- 88
2019-05-17 00:00:00 12.8 4 Norte 10 Norte 0 -- -- 87